Latest Weather Observations for Mt Wellington

IDT60901

Issued at 2:31 am EST Friday 3 July 2015 (issued every 10 minutes, with the page automatically refreshed every 10 minutes)

About weather observations | Map of Hobart area stations | Latest observations for Hobart area | Other Formats
Station Details ID: 094087 Name: MOUNT WELLINGTON Lat: -42.90 Lon: 147.24 Height: 1260.47 m
Data from the previous 72 hours. | See also: Recent months at Mt Wellington
Date/Time
EST
Tmp

°C
App
Tmp
°C
Dew
Point
°C
Rel
Hum
%
Delta-T

°C
Wind Press
QNH
hPa
Press
MSL
hPa
Rain
since
9 am
mm
Dir
 
Spd
km/h
Gust
km/h
Spd
kts
Gust
kts
03/02:30am -2.7 -10.8 -3.4 95 0.1 WSW 30 35 16 19 - - 0.0
03/02:00am -2.9 -11.4 -3.6 95 0.1 WSW 32 37 17 20 - - 0.0
03/01:30am -3.0 -10.8 -3.7 95 0.1 WSW 28 35 15 19 - - 0.0
03/01:00am -3.1 -11.3 -3.8 95 0.1 WSW 30 35 16 19 - - 0.0
03/12:30am -3.0 -11.2 -3.7 95 0.1 WSW 30 35 16 19 - - 0.0
03/12:00am -3.1 -11.8 -3.8 95 0.1 WSW 33 39 18 21 - - 0.0
 
Date/Time
EST
Tmp

°C
App
Tmp
°C
Dew
Point
°C
Rel
Hum
%
Delta-T

°C
Wind Press
QNH
hPa
Press
MSL
hPa
Rain
since
9 am
mm
Dir
 
Spd
km/h
Gust
km/h
Spd
kts
Gust
kts
02/11:30pm -3.2 -12.7 -3.9 95 0.1 WSW 37 41 20 22 - - 0.0
02/11:00pm -3.2 -11.8 -3.9 95 0.1 WSW 32 37 17 20 - - 0.0
02/10:30pm -3.3 -10.7 -4.0 95 0.1 WSW 26 32 14 17 - - 0.0
02/10:00pm -3.4 -11.6 -4.1 95 0.1 WSW 30 37 16 20 - - 0.0
02/09:30pm -3.5 -11.7 -4.2 95 0.1 WSW 30 37 16 20 - - 0.0
02/09:00pm -3.5 -12.1 -4.2 95 0.1 WSW 32 41 17 22 - - 0.0
02/08:30pm -3.6 -11.8 -4.3 95 0.1 WSW 30 37 16 20 - - 0.0
02/08:00pm -3.5 -12.1 -4.2 95 0.1 WSW 32 43 17 23 - - 0.0
02/07:30pm -3.5 -11.0 -4.2 95 0.1 WSW 26 33 14 18 - - 0.0
02/07:00pm -3.6 -11.5 -4.3 95 0.1 WSW 28 35 15 19 - - 0.0
02/06:30pm -3.7 -12.3 -4.4 95 0.1 WSW 32 39 17 21 - - 0.0
02/06:00pm -3.9 -12.7 -4.7 94 0.1 WSW 33 41 18 22 - - 0.0
02/05:30pm -3.7 -12.3 -4.4 95 0.1 WSW 32 43 17 23 - - 0.0
02/05:00pm -3.2 -9.5 -3.9 95 0.1 WSW 20 28 11 15 - - 0.0
02/04:30pm -3.2 -11.0 -3.9 95 0.1 WSW 28 37 15 20 - - 0.0
02/04:00pm -3.0 -11.5 -3.7 95 0.1 WSW 32 37 17 20 - - 0.0
02/03:30pm -2.8 -13.6 -3.5 95 0.1 WSW 44 52 24 28 - - 0.0
02/03:00pm -2.8 -13.6 -3.5 95 0.1 WSW 44 52 24 28 - - 0.0
02/02:30pm -2.5 -11.9 -3.0 96 0.1 WSW 37 44 20 24 - - 0.0
02/02:00pm -2.7 -13.9 -3.4 95 0.1 WSW 46 56 25 30 - - 0.0
02/01:30pm -2.7 -13.9 -3.4 95 0.1 WSW 46 54 25 29 - - 0.0
02/01:00pm -2.8 -14.7 -3.5 95 0.1 WSW 50 57 27 31 - - 0.0
02/12:30pm -2.7 -13.5 -3.4 95 0.1 WSW 44 56 24 30 - - 0.0
02/12:00pm -2.4 -11.8 -2.9 96 0.1 WSW 37 50 20 27 - - 0.0
02/11:30am -2.5 -11.9 -3.2 95 0.1 WSW 37 52 20 28 - - 0.0
02/11:00am -2.6 -14.1 -3.3 95 0.1 WSW 48 57 26 31 - - 0.0
02/10:43am -2.7 -13.3 -3.4 95 0.1 WSW 43 61 23 33 - - 0.0
02/10:30am -2.7 -13.5 -3.4 95 0.1 WSW 44 59 24 32 - - 0.0
02/10:00am -3.0 -15.0 -3.7 95 0.1 WSW 50 61 27 33 - - 0.0
02/09:30am -3.2 -16.5 -3.9 95 0.1 WSW 57 67 31 36 - - 0.0
02/09:00am -3.3 -14.5 -4.0 95 0.1 WSW 46 59 25 32 - - 1.8
02/08:30am -3.5 -16.3 -4.2 95 0.1 WSW 54 65 29 35 - - 1.8
02/08:00am -3.5 -15.1 -4.2 95 0.1 WSW 48 59 26 32 - - 1.8
02/07:30am -3.6 -16.8 -4.3 95 0.1 WSW 56 69 30 37 - - 1.8
02/07:14am -3.4 -17.5 -4.1 95 0.1 WSW 61 83 33 45 - - 1.8
02/07:00am -3.4 -16.7 -4.1 95 0.1 WSW 57 70 31 38 - - 1.8
02/06:30am -3.4 -16.2 -4.1 95 0.1 WSW 54 65 29 35 - - 1.8
02/06:00am -3.3 -15.7 -4.0 95 0.1 WSW 52 67 28 36 - - 1.8
02/05:30am -3.3 -14.9 -4.0 95 0.1 WSW 48 59 26 32 - - 1.8
02/05:00am -3.3 -16.6 -4.0 95 0.1 WSW 57 69 31 37 - - 1.8
02/04:51am -3.4 -16.7 -4.1 95 0.1 WSW 57 76 31 41 - - 1.8
02/04:30am -3.3 -18.5 -4.0 95 0.1 WSW 67 80 36 43 - - 1.8
02/04:00am -3.2 -16.3 -3.9 95 0.1 WSW 56 70 30 38 - - 1.8
02/03:59am -3.2 -16.3 -3.9 95 0.1 WSW 56 70 30 38 - - 1.8
02/03:37am -3.3 -13.6 -4.0 95 0.1 WSW 41 59 22 32 - - 1.8
02/03:30am -3.3 -15.3 -4.0 95 0.1 WSW 50 61 27 33 - - 1.8
02/03:01am -3.4 -17.5 -4.1 95 0.1 WSW 61 80 33 43 - - 1.8
02/03:00am -3.4 -17.1 -4.1 95 0.1 WSW 59 76 32 41 - - 1.8
02/02:33am -3.1 -16.4 -3.8 95 0.1 WSW 57 78 31 42 - - 1.8
02/02:30am -3.1 -16.8 -3.8 95 0.1 WSW 59 78 32 42 - - 1.8
02/02:13am -2.9 -16.9 -3.6 95 0.1 WSW 61 83 33 45 - - 1.8
02/02:10am -2.9 -16.6 -3.6 95 0.1 WSW 59 83 32 45 - - 1.8
02/02:00am -2.6 -13.7 -3.1 96 0.1 WSW 46 78 25 42 - - 1.8
02/01:30am -2.6 -14.1 -3.1 96 0.1 WSW 48 67 26 36 - - 1.8
02/01:03am -2.6 -14.5 -3.1 96 0.1 WSW 50 70 27 38 - - 1.8
02/01:00am -2.6 -14.9 -3.1 96 0.1 WSW 52 70 28 38 - - 1.8
02/12:30am -2.0 -16.3 -2.7 95 0.2 WSW 63 91 34 49 - - 1.8
02/12:00am -1.7 -17.2 -2.8 92 0.3 W 69 89 37 48 - - 1.8
 
Date/Time
EST
Tmp

°C
App
Tmp
°C
Dew
Point
°C
Rel
Hum
%
Delta-T

°C
Wind Press
QNH
hPa
Press
MSL
hPa
Rain
since
9 am
mm
Dir
 
Spd
km/h
Gust
km/h
Spd
kts
Gust
kts
01/11:48pm -1.6 -16.3 -2.4 94 0.2 W 65 100 35 54 - - 1.8
01/11:45pm -1.6 -14.5 -2.2 96 0.1 W 56 85 30 46 - - 1.8
01/11:42pm -1.5 -14.0 -2.1 96 0.1 W 54 76 29 41 - - 1.8
01/11:36pm -1.5 -15.0 -2.1 96 0.1 W 59 83 32 45 - - 1.8
01/11:30pm -1.4 -17.0 -2.0 96 0.2 W 70 95 38 51 - - 1.8
01/11:00pm -1.0 -15.6 -1.8 94 0.2 W 65 89 35 48 - - 1.8
01/10:30pm -1.2 -16.2 -1.8 96 0.2 WSW 67 93 36 50 - - 1.8
01/10:00pm -0.8 -17.8 -1.5 95 0.2 W 78 107 42 58 - - 1.8
01/09:49pm -0.6 -17.2 -1.3 95 0.2 W 76 117 41 63 - - 1.8
01/09:30pm -1.4 -17.4 -2.1 95 0.2 W 72 98 39 53 - - 1.8
01/09:00pm -1.6 -20.1 -2.6 93 0.3 W 85 109 46 59 - - 1.8
01/08:30pm -1.5 -19.9 -1.9 97 0.1 WSW 85 111 46 60 - - 1.8
01/08:17pm -1.1 -17.0 -1.4 98 0.1 WSW 72 98 39 53 - - 1.8
01/08:00pm -0.6 -15.4 -0.9 98 0.1 WSW 67 78 36 42 - - 1.8
01/07:52pm 0.0 -13.2 -0.3 98 0.1 WSW 59 74 32 40 - - 1.8
01/07:32pm 1.2 -11.5 0.9 98 0.1 W 57 78 31 42 - - 1.4
01/07:30pm 1.2 -12.2 0.9 98 0.1 W 61 78 33 42 - - 1.4
01/07:04pm 1.5 -13.6 1.2 98 0.1 WNW 70 91 38 49 - - 1.0
01/07:00pm 1.4 -13.7 1.1 98 0.1 WNW 70 85 38 46 - - 1.0
01/06:31pm 1.1 -14.1 0.8 98 0.1 NW 70 91 38 49 - - 1.0
01/06:30pm 1.1 -14.4 0.8 98 0.1 NW 72 91 39 49 - - 1.0
01/06:00pm 1.1 -14.8 0.8 98 0.1 WNW 74 100 40 54 - - 1.0
01/05:30pm 1.1 -13.1 0.8 98 0.1 WNW 65 95 35 51 - - 1.0
01/05:00pm 1.1 -12.4 0.8 98 0.1 NW 61 85 33 46 - - 0.8
01/04:30pm 1.3 -10.0 1.0 98 0.1 WNW 50 70 27 38 - - 0.8
01/04:00pm 1.5 -10.2 1.2 98 0.1 NW 52 70 28 38 - - 0.8
01/03:30pm 1.6 -9.3 1.3 98 0.1 WNW 48 69 26 37 - - 0.6
01/03:08pm 1.9 -8.0 1.6 98 0.1 WNW 43 69 23 37 - - 0.4
01/03:00pm 2.0 -7.9 1.7 98 0.1 WNW 43 56 23 30 - - 0.4
01/02:35pm 1.9 -10.5 1.6 98 0.1 WNW 56 80 30 43 - - 0.4
01/02:30pm 1.9 -9.3 1.6 98 0.1 WNW 50 67 27 36 - - 0.4
01/02:00pm 2.0 -9.2 1.7 98 0.1 WNW 50 70 27 38 - - 0.2
01/01:30pm 1.9 -9.7 1.6 98 0.1 NW 52 72 28 39 - - 0.2
01/01:23pm 1.9 -9.0 1.6 98 0.1 NW 48 72 26 39 - - 0.2
01/01:03pm 1.6 -6.5 1.3 98 0.1 NW 33 54 18 29 - - 0.2
01/01:00pm 1.6 -6.8 1.3 98 0.1 NW 35 54 19 29 - - 0.2
01/12:52pm 1.5 -6.0 1.2 98 0.1 NW 30 52 16 28 - - 0.2
01/12:30pm 1.3 -8.7 1.0 98 0.1 NW 43 56 23 30 - - 0.2
01/12:00pm 1.0 -9.2 0.7 98 0.1 NW 44 57 24 31 - - 0.0
01/11:51am 1.0 -9.0 0.7 98 0.1 WNW 43 61 23 33 - - 0.0
01/11:30am 0.9 -9.2 0.6 98 0.1 WNW 43 59 23 32 - - 0.0
01/11:00am 0.9 -10.5 0.5 97 0.2 WNW 50 65 27 35 - - 0.0
01/10:30am 0.9 -9.7 0.5 97 0.2 WNW 46 57 25 31 - - 0.0
01/10:00am 0.8 -11.4 0.2 96 0.2 W 54 69 29 37 - - 0.0
01/09:30am 0.7 -11.1 0.1 96 0.2 W 52 80 28 43 - - 0.0
01/09:00am 0.5 -10.2 -0.1 96 0.2 W 46 65 25 35 - - 0.0
01/08:31am 0.4 -11.5 0.0 97 0.2 W 52 76 28 41 - - 0.0
01/08:30am 0.5 -11.0 0.1 97 0.2 W 50 69 27 37 - - 0.0
01/08:00am 0.4 -12.4 0.0 97 0.2 W 57 70 31 38 - - 0.0
01/07:30am 0.7 -12.1 0.3 97 0.2 W 57 72 31 39 - - 0.0
01/07:00am 0.7 -12.1 0.1 96 0.2 W 57 72 31 39 - - 0.0
01/06:30am 1.5 -10.9 -0.9 84 0.9 W 54 70 29 38 - - 0.0
01/06:12am 1.6 -10.5 -1.6 79 1.2 W 52 72 28 39 - - 0.0
01/06:00am 1.3 -10.7 -1.1 84 0.9 W 52 67 28 36 - - 0.0
01/05:30am 0.8 -12.0 -0.1 94 0.4 W 57 69 31 37 - - 0.0
01/05:00am 0.8 -10.3 -0.3 92 0.4 W 48 61 26 33 - - 0.0
01/04:30am 0.6 -10.6 -1.0 89 0.7 W 48 57 26 31 - - 0.0
01/04:00am 1.2 -11.8 -1.7 81 1.1 W 57 67 31 36 - - 0.0
01/03:30am 0.8 -11.7 -1.9 82 1.1 W 54 67 29 36 - - 0.0
01/03:00am 0.7 -11.3 -0.9 89 0.6 W 52 63 28 34 - - 0.0
01/02:30am 0.6 -10.2 -0.8 90 0.5 W 46 57 25 31 - - 0.0
01/02:00am 0.8 -10.0 -0.6 90 0.5 W 46 57 25 31 - - 0.0
01/01:30am 0.3 -10.7 -2.2 83 1.0 W 46 63 25 34 - - 0.0
01/01:00am 0.0 -11.2 -0.7 95 0.3 W 48 57 26 31 - - 0.0
01/12:30am 0.5 -10.4 -0.9 90 0.6 W 46 57 25 31 - - 0.0
01/12:00am 0.2 -10.6 -0.6 94 0.3 W 46 56 25 30 - - 0.0
 
Date/Time
EST
Tmp

°C
App
Tmp
°C
Dew
Point
°C
Rel
Hum
%
Delta-T

°C
Wind Press
QNH
hPa
Press
MSL
hPa
Rain
since
9 am
mm
Dir
 
Spd
km/h
Gust
km/h
Spd
kts
Gust
kts
30/11:30pm 0.2 -10.6 -0.5 95 0.3 W 46 61 25 33 - - 0.0
30/11:00pm 0.4 -9.5 -0.6 93 0.4 W 41 54 22 29 - - 0.0
30/10:30pm 0.3 -8.0 -0.3 96 0.2 W 33 43 18 23 - - 0.0
30/10:00pm 0.3 -8.4 -0.3 96 0.2 W 35 44 19 24 - - 0.0
30/09:30pm 0.5 -6.4 -0.1 96 0.2 W 26 37 14 20 - - 0.0
30/09:00pm 0.5 -5.3 -0.1 96 0.2 W 20 30 11 16 - - 0.0
30/08:30pm 0.5 -7.6 -0.1 96 0.2 W 32 43 17 23 - - 0.0
30/08:00pm 0.3 -7.8 -0.1 97 0.2 W 32 37 17 20 - - 0.0
30/07:30pm 0.6 -7.4 0.2 97 0.2 W 32 41 17 22 - - 0.0
30/07:00pm 0.7 -7.0 0.1 96 0.2 W 30 39 16 21 - - 0.0
30/06:30pm 0.6 -7.5 -0.1 95 0.3 WSW 32 39 17 21 - - 0.0
30/06:00pm 0.7 -7.4 -0.3 93 0.4 WSW 32 39 17 21 - - 0.0
30/05:30pm 0.8 -6.2 -0.2 93 0.4 W 26 37 14 20 - - 0.0
30/05:00pm 1.4 -6.3 0.2 92 0.5 W 30 37 16 20 - - 0.0
30/04:30pm 1.4 -5.9 0.1 91 0.5 WSW 28 37 15 20 - - 0.0
30/04:14pm 1.6 -6.1 0.0 89 0.6 WSW 30 48 16 26 - - 0.0
30/04:00pm 2.1 -5.9 0.5 89 0.7 WSW 32 43 17 23 - - 0.0
30/03:30pm 3.3 -4.4 0.0 79 1.3 W 30 41 16 22 - - 0.0
30/03:27pm 3.4 -4.3 -0.4 76 1.5 W 30 41 16 22 - - 0.0
30/03:00pm 3.2 -2.5 0.6 83 1.1 W 20 32 11 17 - - 0.0
30/02:30pm 4.2 -3.0 0.4 76 1.6 W 28 39 15 21 - - 0.0
30/02:00pm 4.0 -2.1 0.5 78 1.5 W 22 35 12 19 - - 0.0
30/01:30pm 3.8 -2.7 0.5 79 1.4 W 24 33 13 18 - - 0.0
30/01:00pm 4.8 -0.7 0.4 73 1.8 W 19 26 10 14 - - 0.0
30/12:30pm 4.6 -1.7 -0.8 68 2.2 W 22 37 12 20 - - 0.0
30/12:00pm 4.8 -2.7 -1.6 63 2.5 W 28 37 15 20 - - 0.0
30/11:30am 4.2 -4.0 -1.0 69 2.1 W 32 39 17 21 - - 0.0
30/11:00am 3.6 -5.1 -0.6 74 1.7 W 35 44 19 24 - - 0.0
30/10:30am 3.7 -5.5 -1.6 68 2.1 W 37 48 20 26 - - 0.0
30/10:00am 2.9 -7.4 -1.3 74 1.6 WSW 43 52 23 28 - - 0.0
30/09:30am 2.3 -8.5 -0.6 81 1.1 WSW 46 56 25 30 - - 0.0
30/09:00am 1.9 -9.3 -0.8 82 1.1 WSW 48 57 26 31 - - 0.0
30/08:30am 1.6 -10.4 -1.1 82 1.0 WSW 52 61 28 33 - - 0.0
30/08:00am 1.4 -10.6 -1.2 83 1.0 WSW 52 61 28 33 - - 0.0
30/07:30am 1.3 -10.8 -1.4 82 1.0 WSW 52 59 28 32 - - 0.0
30/07:00am 2.0 -10.9 -2.3 73 1.6 WSW 56 65 30 35 - - 0.0
30/06:30am 2.5 -11.1 -3.2 66 2.1 WSW 59 69 32 37 - - 0.0
30/06:00am 2.6 -10.6 -3.3 65 2.2 WSW 57 69 31 37 - - 0.0
30/05:30am 2.8 -10.3 -3.3 64 2.3 WSW 56 69 30 37 - - 0.0
30/05:01am 2.9 -10.2 -3.9 61 2.5 WSW 56 74 30 40 - - 0.0
30/05:00am 3.2 -10.1 -4.0 59 2.6 WSW 57 74 31 40 - - 0.0
30/04:30am 2.9 -10.4 -3.6 62 2.4 WSW 57 69 31 37 - - 0.0
30/04:00am 3.3 -9.9 -4.9 55 2.9 WSW 56 69 30 37 - - 0.0
30/03:30am 3.8 -9.5 -5.4 51 3.3 WSW 56 69 30 37 - - 0.0
30/03:00am 3.5 -8.6 -5.2 53 3.1 W 50 65 27 35 - - 0.0

Latest Capital City Observations: Canberra | Sydney | Melbourne | Brisbane | Adelaide | Perth | Hobart | Darwin

Other Formats:

Comma delimited format used in spreadsheet applications
http://www.bom.gov.au/fwo/IDT60901/IDT60901.95979.axf

JavaScript Object Notation format (JSON) in row-major order
http://www.bom.gov.au/fwo/IDT60901/IDT60901.95979.json